Skip Navigation Links
NOAA logo - Click to go to the NOAA homepage
NOAA's National Weather Service
Alaska Aviation Weather Unit
  NWS logo - Click to go to the NWS homepage
Left Navbar Graphic     12 AKDT = 20 GMT

   
NOAA is celebrating 200 years of science, service, and stewardship. Visit the NOAA 200th celebration Web site to learn more.
USA.gov is the U.S. Government's official Web portal to all Federal, state and local government Web resources and services.
Facebook
NWS on Facebook

Important Change Regarding the AAWU Web Presence

 

Over the last several months, the AAWU has been working to navigate its webpages to a nationally supported server. Security, as well as other needs, have necessitated the change.  We have been given an extension for the site changeover while we diligently work at addressing feedback received. As of July 14, 2017, aawu.arh.noaa.gov will be discontinued. The new AAWU web address is weather.gov/aawu. It is now live and will run in-parallel with the old site until it is discontinued on July 14, 2017. Please continue to send any feedback or questions regarding the new webpages to nws.ar.aawu.webauthors@noaa.gov.  Thank you for your patience during this time of transition.
AAWU Home :: Display TAF Add Bookmark
PAEH 251430Z AUTO 20009KT 2 1/2SM -SHRA BR OVC008 10/09 A2997=

METAR PAEH 251455Z AUTO 19007KT 10SM BKN014 10/09 A2996=

PAEH 251510Z AUTO 19008KT 10SM FEW002 BKN014 10/09 A2996=

METAR PAEH 251555Z AUTO 15003KT 10SM OVC009 10/09 A2997=

PAEH 251650Z AUTO 30008KT 1SM BR BKN011 10/09 A2997=

METAR PAEH 251655Z AUTO 29009KT 1 1/2SM BR BKN009 10/09 A2997=

PAEH 251710Z AUTO 25007KT 140V270 1 1/2SM BR BKN003 10/09 A2997=

PAEH 251730Z AUTO 27007KT 1/2SM FG OVC002 09/09 A2997=

PAEH 251750Z AUTO 29005KT 1/2SM FG VV003 09/09 A2997=

METAR PAEH 251755Z AUTO 26005KT 1/2SM FG OVC002 10/09 A2997=

METAR PAEH 251855Z AUTO 29010KT M1/4SM FG VV002 10/10 A2997=

PAEH 251950Z AUTO 29012KT 250V340 1/4SM -RA FG VV003 10/10 A2998=

METAR PAEH 251955Z AUTO 29012KT 1/4SM -RA FG VV002 10/10 A2998=


NOAA's National Weather Service
Alaska Aviation Weather Unit
6930 Sand Lake Road
Anchorage, AK 99502-1845
Disclaimer
Credits
Glossary
Privacy Policy
About Us
Career Opportunities
Contact AAWU Internet Services Site last modified: April, 17th 2012